createdAt,value
2022-12-24T00:01:57.090Z,98910.91
2022-12-24T00:04:26.802Z,98902.09
2022-12-24T00:06:56.575Z,98886.93
2022-12-24T00:09:26.479Z,98889.32
2022-12-24T00:11:56.779Z,98888.37
2022-12-24T00:14:26.664Z,98886.81
2022-12-24T00:16:56.889Z,98884.55
2022-12-24T00:19:26.789Z,98897.95
2022-12-24T00:21:56.893Z,98910.87
2022-12-24T00:24:26.805Z,98907.53
2022-12-24T00:26:56.653Z,98911.98
2022-12-24T00:29:26.513Z,98902.82
2022-12-24T00:31:56.331Z,98910.31
2022-12-24T00:34:26.680Z,98910.31
2022-12-24T00:36:56.767Z,98910.16
2022-12-24T00:39:26.576Z,98898.88
2022-12-24T00:41:56.426Z,98907.48
2022-12-24T00:44:26.167Z,98920.70
2022-12-24T00:46:56.241Z,98920.34
2022-12-24T00:49:25.994Z,98920.11
2022-12-24T00:51:55.800Z,98921.21
2022-12-24T00:54:25.531Z,98927.63
2022-12-24T00:56:55.305Z,98930.14
2022-12-24T00:59:25.075Z,98922.73
2022-12-24T01:01:55.036Z,98918.44
2022-12-24T01:04:42.391Z,98915.80
2022-12-24T01:07:12.233Z,98911.03
2022-12-24T01:09:41.991Z,98916.77
2022-12-24T01:12:11.793Z,98916.88
2022-12-24T01:14:41.659Z,98923.57
2022-12-24T01:17:11.511Z,98918.70
2022-12-24T01:19:41.659Z,98924.53
2022-12-24T01:22:12.279Z,98920.13
2022-12-24T01:24:42.951Z,98920.84
2022-12-24T01:27:12.612Z,98919.17
2022-12-24T01:29:43.202Z,98917.38
2022-12-24T01:32:12.707Z,98911.65
2022-12-24T01:34:42.641Z,98908.86
2022-12-24T01:37:12.461Z,98907.55
2022-12-24T01:39:42.184Z,98905.31
2022-12-24T01:42:41.240Z,98903.27
2022-12-24T01:45:33.469Z,98905.32
2022-12-24T01:48:03.641Z,98911.05
2022-12-24T01:50:33.457Z,98896.34
2022-12-24T01:53:05.192Z,98902.67
2022-12-24T01:55:35.144Z,98899.08
2022-12-24T01:58:06.865Z,98898.48
2022-12-24T02:00:37.196Z,98899.71
2022-12-24T02:03:07.587Z,98899.71
2022-12-24T02:05:52.671Z,98893.11
2022-12-24T02:08:22.726Z,98901.74
2022-12-24T02:10:52.508Z,98901.74
2022-12-24T02:13:22.760Z,98904.94
2022-12-24T02:16:15.215Z,98896.22
2022-12-24T02:18:59.637Z,98893.47
2022-12-24T02:22:02.707Z,98894.91
2022-12-24T02:24:59.222Z,98894.91
2022-12-24T02:27:32.042Z,98897.17
2022-12-24T02:30:10.654Z,98890.84
2022-12-24T02:32:46.648Z,98909.23
2022-12-24T02:35:31.429Z,98899.23
2022-12-24T02:38:04.281Z,98895.38
2022-12-24T02:40:46.153Z,98899.44
2022-12-24T02:43:18.691Z,98906.88
2022-12-24T02:45:58.540Z,98898.37
2022-12-24T02:48:24.640Z,98909.14
2022-12-24T02:51:06.567Z,98901.63
2022-12-24T02:53:37.100Z,98890.61
2022-12-24T02:56:27.727Z,98897.08
2022-12-24T02:59:16.336Z,98888.21
2022-12-24T03:02:05.720Z,98893.50
2022-12-24T03:04:56.917Z,98890.36
2022-12-24T03:07:44.051Z,98898.99
2022-12-24T03:10:22.829Z,98902.45
2022-12-24T03:12:55.895Z,98900.30
2022-12-24T03:15:28.611Z,98908.19
2022-12-24T03:18:01.217Z,98901.62
2022-12-24T03:20:39.763Z,98899.11
2022-12-24T03:23:09.924Z,98903.88
2022-12-24T03:25:45.575Z,98903.50
2022-12-24T03:28:18.395Z,98903.50
2022-12-24T03:30:49.629Z,98908.88
2022-12-24T03:33:20.153Z,98913.92
2022-12-24T03:35:49.696Z,98911.05
2022-12-24T03:38:19.174Z,98911.89
2022-12-24T03:40:48.951Z,98919.52
2022-12-24T03:43:18.398Z,98915.72
2022-12-24T03:45:48.226Z,98913.50
2022-12-24T03:48:17.782Z,98917.13
2022-12-24T03:50:47.619Z,98914.49
2022-12-24T03:53:17.360Z,98918.08
2022-12-24T03:55:48.038Z,98924.89
2022-12-24T03:58:16.912Z,98935.16
2022-12-24T04:00:46.578Z,98929.88
2022-12-24T04:03:16.279Z,98932.42
2022-12-24T04:05:46.055Z,98926.42
2022-12-24T04:08:15.809Z,98932.88
2022-12-24T04:10:45.584Z,98938.94
2022-12-24T04:13:15.027Z,98943.00
2022-12-24T04:15:44.800Z,98944.13
2022-12-24T04:18:14.245Z,98941.47
2022-12-24T04:20:44.090Z,98932.64
2022-12-24T04:23:13.530Z,98941.70
2022-12-24T04:25:43.302Z,98934.86
2022-12-24T04:28:13.053Z,98943.66
2022-12-24T04:30:43.474Z,98935.34
2022-12-24T04:33:13.054Z,98935.34
2022-12-24T04:35:44.591Z,98940.55
2022-12-24T04:38:14.358Z,98943.56
2022-12-24T04:40:44.122Z,98937.58
2022-12-24T04:43:13.992Z,98937.90
2022-12-24T04:45:43.752Z,98940.89
2022-12-24T04:48:13.346Z,98943.95
2022-12-24T04:50:43.137Z,98945.84
2022-12-24T04:53:14.527Z,98944.09
2022-12-24T04:55:48.269Z,98952.08
2022-12-24T04:58:18.132Z,98949.14
2022-12-24T05:00:47.965Z,98950.89
2022-12-24T05:03:17.512Z,98955.59
2022-12-24T05:05:47.764Z,98958.17
2022-12-24T05:08:17.656Z,98968.53
2022-12-24T05:10:50.497Z,98968.53
2022-12-24T05:13:19.932Z,98966.38
2022-12-24T05:15:49.695Z,98963.54
2022-12-24T05:18:20.047Z,98968.38
2022-12-24T05:20:49.755Z,98968.38
2022-12-24T05:23:39.646Z,98963.72
2022-12-24T05:26:24.546Z,98969.56
2022-12-24T05:28:56.019Z,98972.69
2022-12-24T05:31:28.134Z,98985.66
2022-12-24T05:33:58.018Z,98983.58
2022-12-24T05:36:28.239Z,98992.39
2022-12-24T05:38:58.441Z,98988.15
2022-12-24T05:41:28.416Z,98995.50
2022-12-24T05:43:58.154Z,98995.63
2022-12-24T05:46:28.551Z,98998.93
2022-12-24T05:48:58.681Z,98998.89
2022-12-24T05:51:28.522Z,99000.08
2022-12-24T05:53:58.401Z,99011.41
2022-12-24T05:56:28.538Z,99007.98
2022-12-24T05:58:58.441Z,99013.18
2022-12-24T06:01:28.659Z,99019.78
2022-12-24T06:03:58.881Z,99022.23
2022-12-24T06:06:30.246Z,99022.36
2022-12-24T06:09:00.375Z,99027.71
2022-12-24T06:11:30.442Z,99031.18
2022-12-24T06:14:00.670Z,99038.06
2022-12-24T06:16:30.942Z,99038.19
2022-12-24T06:19:01.417Z,99045.43
2022-12-24T06:21:31.242Z,99050.13
2022-12-24T06:24:01.347Z,99056.36
2022-12-24T06:26:31.122Z,99056.36
2022-12-24T06:29:00.984Z,99071.93
2022-12-24T06:31:30.767Z,99069.73
2022-12-24T06:34:00.739Z,99067.22
2022-12-24T06:36:30.779Z,99077.23
2022-12-24T06:39:00.610Z,99084.02
2022-12-24T06:41:30.352Z,99089.97
2022-12-24T06:44:00.195Z,99089.59
2022-12-24T06:46:30.029Z,99093.99
2022-12-24T06:48:59.824Z,99086.34
2022-12-24T06:51:29.599Z,99096.22
2022-12-24T06:53:59.477Z,99099.72
2022-12-24T06:56:29.202Z,99110.88
2022-12-24T06:59:05.052Z,99109.20
2022-12-24T07:01:30.513Z,99114.64
2022-12-24T07:04:00.504Z,99114.64
2022-12-24T07:06:31.230Z,99117.54
2022-12-24T07:09:00.809Z,99123.07
2022-12-24T07:11:30.758Z,99137.67
2022-12-24T07:14:00.605Z,99138.38
2022-12-24T07:16:30.470Z,99141.48
2022-12-24T07:19:00.617Z,99158.62
2022-12-24T07:21:30.383Z,99158.62
2022-12-24T07:24:00.159Z,99168.34
2022-12-24T07:26:29.948Z,99164.89
2022-12-24T07:28:59.747Z,99180.13
2022-12-24T07:31:29.589Z,99188.62
2022-12-24T07:33:59.421Z,99189.62
2022-12-24T07:36:29.220Z,99191.75
2022-12-24T07:38:59.014Z,99201.16
2022-12-24T07:41:28.750Z,99212.85
2022-12-24T07:43:58.511Z,99215.03
2022-12-24T07:46:28.323Z,99229.66
2022-12-24T07:48:58.117Z,99226.88
2022-12-24T07:51:28.145Z,99225.02
2022-12-24T07:53:57.940Z,99227.29
2022-12-24T07:56:27.656Z,99230.17
2022-12-24T07:58:57.497Z,99246.25
2022-12-24T08:01:27.854Z,99246.25
2022-12-24T08:03:58.142Z,99252.22
2022-12-24T08:06:27.946Z,99259.80
2022-12-24T08:08:57.780Z,99258.69
2022-12-24T08:11:27.794Z,99265.17
2022-12-24T08:13:57.586Z,99279.50
2022-12-24T08:16:27.421Z,99279.50
2022-12-24T08:18:57.438Z,99276.45
2022-12-24T08:21:27.204Z,99280.53
2022-12-24T08:23:57.021Z,99295.52
2022-12-24T08:26:27.077Z,99295.52
2022-12-24T08:28:56.881Z,99294.02
2022-12-24T08:31:26.798Z,99314.49
2022-12-24T08:33:56.465Z,99310.42
2022-12-24T08:36:26.236Z,99320.61
2022-12-24T08:38:55.961Z,99328.16
2022-12-24T08:41:25.814Z,99334.39
2022-12-24T08:43:55.835Z,99341.58
2022-12-24T08:46:25.656Z,99343.38
2022-12-24T08:48:55.446Z,99354.16
2022-12-24T08:51:25.055Z,99349.48
2022-12-24T08:53:54.806Z,99355.72
2022-12-24T08:56:24.422Z,99355.23
2022-12-24T08:58:54.829Z,99369.02
2022-12-24T09:01:24.813Z,99369.02
2022-12-24T09:03:54.702Z,99361.11
2022-12-24T09:06:24.191Z,99361.59
2022-12-24T09:08:53.922Z,99370.33
2022-12-24T09:11:23.640Z,99368.78
2022-12-24T09:13:53.435Z,99369.14
2022-12-24T09:16:23.222Z,99367.70
2022-12-24T09:18:52.982Z,99373.21
2022-12-24T09:21:22.543Z,99374.67
2022-12-24T09:23:52.424Z,99376.71
2022-12-24T09:26:25.100Z,99383.87
2022-12-24T09:28:55.200Z,99390.73
2022-12-24T09:31:25.014Z,99399.70
2022-12-24T09:33:55.507Z,99409.27
2022-12-24T09:36:25.136Z,99404.86
2022-12-24T09:38:54.942Z,99414.92
2022-12-24T09:41:27.447Z,99420.42
2022-12-24T09:44:03.342Z,99417.66
2022-12-24T09:46:39.323Z,99423.55
2022-12-24T09:49:12.018Z,99429.78
2022-12-24T09:51:44.842Z,99426.30
2022-12-24T09:54:35.170Z,99426.06
2022-12-24T09:57:08.007Z,99424.75
2022-12-24T09:59:46.682Z,99440.81
2022-12-24T10:02:19.493Z,99445.59
2022-12-24T10:04:49.801Z,99445.59
2022-12-24T10:07:40.555Z,99452.17
2022-12-24T10:10:30.935Z,99457.68
2022-12-24T10:13:18.976Z,99458.52
2022-12-24T10:15:57.274Z,99463.40
2022-12-24T10:18:36.108Z,99466.89
2022-12-24T10:21:18.643Z,99471.12
2022-12-24T10:23:54.175Z,99471.45
2022-12-24T10:26:30.135Z,99480.20
2022-12-24T10:29:09.013Z,99490.03
2022-12-24T10:31:44.342Z,99499.02
2022-12-24T10:34:20.277Z,99502.27
2022-12-24T10:36:50.042Z,99502.27
2022-12-24T10:39:25.157Z,99504.39
2022-12-24T10:42:00.891Z,99508.97
2022-12-24T10:44:33.919Z,99522.23
2022-12-24T10:47:05.221Z,99514.25
2022-12-24T10:49:55.799Z,99522.50
2022-12-24T10:52:28.643Z,99531.34
2022-12-24T10:55:19.575Z,99535.63
2022-12-24T10:58:03.933Z,99541.39
2022-12-24T11:00:36.631Z,99547.23
2022-12-24T11:03:16.485Z,99551.23
2022-12-24T11:05:46.372Z,99548.23
2022-12-24T11:08:20.456Z,99557.71
2022-12-24T11:11:02.207Z,99559.69
2022-12-24T11:13:38.005Z,99572.07
2022-12-24T11:16:28.708Z,99569.63
2022-12-24T11:19:00.744Z,99569.63
2022-12-24T11:21:36.497Z,99576.59
2022-12-24T11:24:18.910Z,99580.66
2022-12-24T11:26:48.675Z,99579.81
2022-12-24T11:29:23.679Z,99593.35
2022-12-24T11:31:53.953Z,99585.55
2022-12-24T11:34:34.988Z,99586.67
2022-12-24T11:37:19.670Z,99595.39
2022-12-24T11:39:52.344Z,99592.34
2022-12-24T11:42:36.836Z,99592.34
2022-12-24T11:45:26.051Z,99595.34
2022-12-24T11:47:56.760Z,99600.72
2022-12-24T11:50:29.599Z,99600.72
2022-12-24T11:53:08.273Z,99587.99
2022-12-24T11:55:52.583Z,99612.58
2022-12-24T11:58:31.168Z,99613.30
2022-12-24T12:01:06.588Z,99617.27
2022-12-24T12:03:38.764Z,99614.94
2022-12-24T12:06:26.300Z,99618.51
2022-12-24T12:09:02.010Z,99627.53
2022-12-24T12:11:34.251Z,99630.55
2022-12-24T12:14:06.149Z,99636.75
2022-12-24T12:17:04.163Z,99638.70
2022-12-24T12:19:40.048Z,99643.44
2022-12-24T12:22:12.703Z,99651.92
2022-12-24T12:24:45.517Z,99646.77
2022-12-24T12:27:30.234Z,99654.81
2022-12-24T12:30:06.153Z,99662.02
2022-12-24T12:32:51.362Z,99667.48
2022-12-24T12:35:24.244Z,99663.22
2022-12-24T12:38:08.815Z,99674.38
2022-12-24T12:40:59.241Z,99680.62
2022-12-24T12:43:53.707Z,99686.39
2022-12-24T12:46:26.585Z,99688.04
2022-12-24T12:49:03.292Z,99688.04
2022-12-24T12:51:57.466Z,99682.65
2022-12-24T12:54:46.119Z,99687.92
2022-12-24T12:57:18.727Z,99691.56
2022-12-24T13:00:03.618Z,99698.45
2022-12-24T13:03:01.053Z,99700.75
2022-12-24T13:05:49.271Z,99704.11
2022-12-24T13:08:44.158Z,99706.53
2022-12-24T13:11:40.968Z,99710.50
2022-12-24T13:14:22.541Z,99708.45
2022-12-24T13:17:14.746Z,99714.55
2022-12-24T13:20:13.031Z,99720.06
2022-12-24T13:23:00.598Z,99719.95
2022-12-24T13:25:39.379Z,99720.92
2022-12-24T13:28:27.280Z,99721.95
2022-12-24T13:31:14.376Z,99734.77
2022-12-24T13:33:47.196Z,99743.50
2022-12-24T13:36:18.702Z,99745.90
2022-12-24T13:39:00.050Z,99747.45
2022-12-24T13:41:42.929Z,99749.61
2022-12-24T13:44:18.443Z,99745.31
2022-12-24T13:47:06.787Z,99756.20
2022-12-24T13:49:42.395Z,99756.20
2022-12-24T13:52:15.218Z,99755.76
2022-12-24T13:54:48.024Z,99753.80
2022-12-24T13:57:29.773Z,99751.17
2022-12-24T14:00:09.178Z,99751.30
2022-12-24T14:02:43.878Z,99754.05
2022-12-24T14:05:21.663Z,99757.17
2022-12-24T14:07:52.361Z,99747.82
2022-12-24T14:10:25.511Z,99751.55
2022-12-24T14:12:55.619Z,99759.45
2022-12-24T14:15:47.009Z,99760.52
2022-12-24T14:18:25.781Z,99764.50
2022-12-24T14:20:58.606Z,99756.20
2022-12-24T14:23:47.999Z,99767.96
2022-12-24T14:26:20.782Z,99773.89
2022-12-24T14:28:56.735Z,99775.45
2022-12-24T14:31:26.660Z,99780.80
2022-12-24T14:34:14.354Z,99775.89
2022-12-24T14:36:46.565Z,99788.52
2022-12-24T14:39:31.369Z,99794.56
2022-12-24T14:42:23.559Z,99793.55
2022-12-24T14:45:08.303Z,99804.77
2022-12-24T14:48:03.854Z,99808.25
2022-12-24T14:50:58.172Z,99817.36
2022-12-24T14:53:51.940Z,99830.28
2022-12-24T14:56:22.686Z,99831.81
2022-12-24T14:58:52.756Z,99837.61
2022-12-24T15:01:30.931Z,99844.61
2022-12-24T15:04:15.988Z,99851.77
2022-12-24T15:06:52.569Z,99866.37
2022-12-24T15:09:30.812Z,99865.58
2022-12-24T15:12:04.780Z,99864.86
2022-12-24T15:14:37.579Z,99872.37
2022-12-24T15:17:09.188Z,99875.17
2022-12-24T15:19:42.458Z,99881.20
2022-12-24T15:22:23.978Z,99881.94
2022-12-24T15:24:53.849Z,99889.13
2022-12-24T15:27:28.336Z,99878.67
2022-12-24T15:29:59.885Z,99883.76
2022-12-24T15:32:29.428Z,99889.50
2022-12-24T15:35:00.313Z,99887.23
2022-12-24T15:37:40.328Z,99889.34
2022-12-24T15:40:12.900Z,99888.55
2022-12-24T15:42:46.356Z,99870.61
2022-12-24T15:45:27.216Z,99870.61
2022-12-24T15:47:57.854Z,99888.16
2022-12-24T15:50:33.749Z,99886.36
2022-12-24T15:53:19.954Z,99887.68
2022-12-24T15:55:43.581Z,99901.52
2022-12-24T15:58:25.358Z,99903.15
2022-12-24T16:01:16.228Z,99905.36
2022-12-24T16:03:57.471Z,99905.88
2022-12-24T16:06:28.334Z,99921.11
2022-12-24T16:08:58.712Z,99926.71
2022-12-24T16:11:36.855Z,99924.23
2022-12-24T16:14:20.179Z,99924.16
2022-12-24T16:16:53.664Z,99917.12
2022-12-24T16:19:29.396Z,99925.42
2022-12-24T16:22:05.767Z,99929.38
2022-12-24T16:24:37.268Z,99949.75
2022-12-24T16:27:09.947Z,99943.93
2022-12-24T16:29:39.690Z,99936.94
2022-12-24T16:32:26.933Z,99953.20
2022-12-24T16:34:56.761Z,99960.44
2022-12-24T16:37:26.611Z,99960.20
2022-12-24T16:39:57.193Z,99972.53
2022-12-24T16:42:45.026Z,99972.53
2022-12-24T16:45:14.467Z,99974.05
2022-12-24T16:47:44.450Z,99970.73
2022-12-24T16:50:19.148Z,99970.73
2022-12-24T16:52:49.015Z,99973.81
2022-12-24T16:55:18.461Z,99977.56
2022-12-24T16:57:48.226Z,99975.03
2022-12-24T17:00:23.075Z,99983.58
2022-12-24T17:02:54.357Z,99983.38
2022-12-24T17:05:24.308Z,99985.69
2022-12-24T17:07:54.063Z,99986.71
2022-12-24T17:10:23.608Z,99984.42
2022-12-24T17:12:53.349Z,99984.98
2022-12-24T17:15:23.111Z,99987.06
2022-12-24T17:17:52.849Z,99995.06
2022-12-24T17:20:24.554Z,99994.27
2022-12-24T17:22:54.544Z,99994.27
2022-12-24T17:25:24.352Z,99992.30
2022-12-24T17:27:54.153Z,100001.00
2022-12-24T17:30:23.696Z,100001.00
2022-12-24T17:32:53.439Z,100001.96
2022-12-24T17:35:23.143Z,100006.29
2022-12-24T17:37:52.911Z,100009.86
2022-12-24T17:40:22.609Z,100008.70
2022-12-24T17:42:52.424Z,100008.70
2022-12-24T17:45:21.937Z,100018.46
2022-12-24T17:47:51.914Z,100023.86
2022-12-24T17:50:21.703Z,100032.38
2022-12-24T17:52:51.435Z,100036.61
2022-12-24T17:55:22.588Z,100047.20
2022-12-24T17:57:52.347Z,100063.68
2022-12-24T18:00:22.268Z,100083.77
2022-12-24T18:02:51.995Z,100069.56
2022-12-24T18:05:21.646Z,100067.11
2022-12-24T18:07:51.503Z,100079.20
2022-12-24T18:10:21.286Z,100079.20
2022-12-24T18:12:51.020Z,100084.49
2022-12-24T18:15:21.756Z,100082.62
2022-12-24T18:17:53.642Z,100084.84
2022-12-24T18:20:23.993Z,100079.42
2022-12-24T18:22:53.445Z,100079.06
2022-12-24T18:25:23.771Z,100085.62
2022-12-24T18:27:53.904Z,100086.00
2022-12-24T18:30:27.728Z,100081.48
2022-12-24T18:32:55.065Z,100081.96
2022-12-24T18:35:24.950Z,100082.81
2022-12-24T18:37:55.154Z,100081.81
2022-12-24T18:40:24.899Z,100081.81
2022-12-24T18:42:54.639Z,100084.23
2022-12-24T18:45:24.467Z,100084.23
2022-12-24T18:47:54.457Z,100097.36
2022-12-24T18:50:24.223Z,100097.36
2022-12-24T18:52:53.970Z,100105.20
2022-12-24T18:55:23.449Z,100105.08
2022-12-24T18:57:53.194Z,100120.37
2022-12-24T19:00:23.083Z,100113.72
2022-12-24T19:02:53.093Z,100113.72
2022-12-24T19:05:23.080Z,100115.96
2022-12-24T19:07:52.812Z,100119.91
2022-12-24T19:10:22.305Z,100122.21
2022-12-24T19:12:52.452Z,100125.16
2022-12-24T19:15:21.964Z,100127.94
2022-12-24T19:17:56.331Z,100120.37
2022-12-24T19:20:26.069Z,100122.77
2022-12-24T19:22:55.885Z,100130.69
2022-12-24T19:25:25.619Z,100139.69
2022-12-24T19:27:55.691Z,100135.38
2022-12-24T19:30:25.428Z,100137.05
2022-12-24T19:32:55.300Z,100130.19
2022-12-24T19:35:24.755Z,100127.47
2022-12-24T19:37:54.637Z,100140.91
2022-12-24T19:40:24.476Z,100143.02
2022-12-24T19:42:54.794Z,100147.38
2022-12-24T19:45:24.856Z,100147.38
2022-12-24T19:47:54.499Z,100152.54
2022-12-24T19:50:24.290Z,100149.98
2022-12-24T19:52:54.197Z,100170.92
2022-12-24T19:55:25.001Z,100170.92
2022-12-24T19:57:54.815Z,100167.30
2022-12-24T20:00:24.331Z,100167.77
2022-12-24T20:02:54.450Z,100168.53
2022-12-24T20:05:24.283Z,100174.98
2022-12-24T20:07:54.071Z,100173.94
2022-12-24T20:10:23.569Z,100176.00
2022-12-24T20:12:53.359Z,100169.97
2022-12-24T20:15:22.953Z,100165.52
2022-12-24T20:17:54.489Z,100174.55
2022-12-24T20:20:24.321Z,100180.38
2022-12-24T20:22:54.187Z,100186.30
2022-12-24T20:25:23.714Z,100190.42
2022-12-24T20:27:53.645Z,100200.22
2022-12-24T20:30:23.469Z,100200.22
2022-12-24T20:32:57.407Z,100201.66
2022-12-24T20:35:27.419Z,100209.95
2022-12-24T20:37:57.055Z,100208.09
2022-12-24T20:40:26.794Z,100207.71
2022-12-24T20:42:56.747Z,100213.90
2022-12-24T20:45:26.667Z,100218.25
2022-12-24T20:47:56.410Z,100218.19
2022-12-24T20:50:26.959Z,100219.87
2022-12-24T20:52:56.503Z,100219.87
2022-12-24T20:55:26.450Z,100222.31
2022-12-24T20:57:57.234Z,100216.62
2022-12-24T21:00:27.047Z,100223.67
2022-12-24T21:02:57.067Z,100227.80
2022-12-24T21:05:26.936Z,100233.48
2022-12-24T21:07:57.130Z,100234.80
2022-12-24T21:10:33.874Z,100236.98
2022-12-24T21:12:58.947Z,100238.49
2022-12-24T21:15:31.532Z,100238.49
2022-12-24T21:18:02.532Z,100237.98
2022-12-24T21:20:32.396Z,100235.19
2022-12-24T21:23:03.808Z,100231.82
2022-12-24T21:25:33.648Z,100239.38
2022-12-24T21:28:03.429Z,100237.45
2022-12-24T21:30:33.325Z,100235.12
2022-12-24T21:33:03.098Z,100237.34
2022-12-24T21:35:32.862Z,100238.35
2022-12-24T21:38:02.605Z,100245.91
2022-12-24T21:40:32.373Z,100246.21
2022-12-24T21:43:02.145Z,100243.25
2022-12-24T21:45:32.084Z,100244.27
2022-12-24T21:48:03.546Z,100241.95
2022-12-24T21:50:51.220Z,100241.95
2022-12-24T21:53:38.470Z,100241.70
2022-12-24T21:56:12.220Z,100241.54
2022-12-24T21:58:42.253Z,100241.64
2022-12-24T22:01:12.295Z,100237.45
2022-12-24T22:03:42.206Z,100239.95
2022-12-24T22:06:16.719Z,100236.36
2022-12-24T22:09:04.533Z,100248.95
2022-12-24T22:11:54.228Z,100252.36
2022-12-24T22:14:20.294Z,100255.32
2022-12-24T22:16:50.207Z,100231.83
2022-12-24T22:19:20.035Z,100253.49
2022-12-24T22:21:49.798Z,100259.08
2022-12-24T22:24:19.452Z,100263.87
2022-12-24T22:26:49.235Z,100259.86
2022-12-24T22:29:18.807Z,100255.35
2022-12-24T22:31:48.907Z,100258.73
2022-12-24T22:34:18.649Z,100258.73
2022-12-24T22:36:48.732Z,100253.67
2022-12-24T22:39:18.415Z,100260.81
2022-12-24T22:41:48.201Z,100260.81
2022-12-24T22:44:17.662Z,100267.30
2022-12-24T22:46:47.451Z,100268.13
2022-12-24T22:49:16.906Z,100268.06
2022-12-24T22:51:46.683Z,100267.34
2022-12-24T22:54:16.240Z,100267.08
2022-12-24T22:56:46.071Z,100267.08
2022-12-24T22:59:15.745Z,100272.62
2022-12-24T23:01:47.413Z,100269.00
2022-12-24T23:04:17.289Z,100268.12
2022-12-24T23:06:47.253Z,100274.35
2022-12-24T23:09:18.353Z,100280.49
2022-12-24T23:11:49.739Z,100286.05
2022-12-24T23:14:39.222Z,100293.55
2022-12-24T23:17:09.442Z,100305.11
2022-12-24T23:19:39.948Z,100306.78
2022-12-24T23:22:10.858Z,100316.41
2022-12-24T23:24:41.294Z,100313.07
2022-12-24T23:27:11.138Z,100305.44
2022-12-24T23:29:40.984Z,100309.84
2022-12-24T23:32:10.533Z,100316.73
2022-12-24T23:34:40.459Z,100311.61
2022-12-24T23:37:09.903Z,100317.92
2022-12-24T23:39:39.657Z,100326.55
2022-12-24T23:42:09.132Z,100329.60
2022-12-24T23:44:38.862Z,100341.50
2022-12-24T23:47:08.444Z,100347.16
2022-12-24T23:49:38.519Z,100351.95
2022-12-24T23:52:08.555Z,100349.88
2022-12-24T23:54:38.373Z,100347.23
2022-12-24T23:57:08.141Z,100341.69
2022-12-24T23:59:38.527Z,100341.69
